sensor_id;sensor_type;location;lat;lon;timestamp;P1;durP1;ratioP1;P2;durP2;ratioP2
3443;SDS011;1736;52.068;6.968;2023-04-19T00:01:44;13.03;;;8.77;;
3443;SDS011;1736;52.068;6.968;2023-04-19T00:04:10;12.17;;;8.93;;
3443;SDS011;1736;52.068;6.968;2023-04-19T00:06:39;13.57;;;8.90;;
3443;SDS011;1736;52.068;6.968;2023-04-19T00:09:07;14.13;;;8.80;;
3443;SDS011;1736;52.068;6.968;2023-04-19T00:11:34;14.70;;;9.47;;
3443;SDS011;1736;52.068;6.968;2023-04-19T00:14:00;11.90;;;8.20;;
3443;SDS011;1736;52.068;6.968;2023-04-19T00:16:27;12.50;;;9.03;;
3443;SDS011;1736;52.068;6.968;2023-04-19T00:18:53;16.37;;;9.60;;
3443;SDS011;1736;52.068;6.968;2023-04-19T00:21:20;12.60;;;8.80;;
3443;SDS011;1736;52.068;6.968;2023-04-19T00:23:47;13.87;;;9.63;;
3443;SDS011;1736;52.068;6.968;2023-04-19T00:26:14;15.30;;;8.80;;
3443;SDS011;1736;52.068;6.968;2023-04-19T00:28:41;14.60;;;9.10;;
3443;SDS011;1736;52.068;6.968;2023-04-19T00:31:07;13.73;;;8.80;;
3443;SDS011;1736;52.068;6.968;2023-04-19T00:33:34;12.20;;;8.30;;
3443;SDS011;1736;52.068;6.968;2023-04-19T00:36:00;12.73;;;8.77;;
3443;SDS011;1736;52.068;6.968;2023-04-19T00:38:27;10.07;;;8.20;;
3443;SDS011;1736;52.068;6.968;2023-04-19T00:40:54;15.47;;;8.60;;
3443;SDS011;1736;52.068;6.968;2023-04-19T00:43:21;9.70;;;8.10;;
3443;SDS011;1736;52.068;6.968;2023-04-19T00:45:48;15.40;;;7.80;;
3443;SDS011;1736;52.068;6.968;2023-04-19T00:48:15;14.37;;;8.53;;
3443;SDS011;1736;52.068;6.968;2023-04-19T00:50:42;9.53;;;7.27;;
3443;SDS011;1736;52.068;6.968;2023-04-19T00:53:09;11.83;;;7.80;;
3443;SDS011;1736;52.068;6.968;2023-04-19T00:55:37;14.40;;;8.43;;
3443;SDS011;1736;52.068;6.968;2023-04-19T00:58:04;11.93;;;8.20;;
3443;SDS011;1736;52.068;6.968;2023-04-19T01:00:32;9.77;;;7.17;;
3443;SDS011;1736;52.068;6.968;2023-04-19T01:02:58;12.20;;;7.90;;
3443;SDS011;1736;52.068;6.968;2023-04-19T01:05:25;13.37;;;7.17;;
3443;SDS011;1736;52.068;6.968;2023-04-19T01:07:52;9.13;;;7.57;;
3443;SDS011;1736;52.068;6.968;2023-04-19T01:10:18;9.27;;;7.07;;
3443;SDS011;1736;52.068;6.968;2023-04-19T01:12:45;9.47;;;7.43;;
3443;SDS011;1736;52.068;6.968;2023-04-19T01:15:11;10.20;;;7.23;;
3443;SDS011;1736;52.068;6.968;2023-04-19T01:17:39;7.43;;;6.10;;
3443;SDS011;1736;52.068;6.968;2023-04-19T01:20:07;8.83;;;6.83;;
3443;SDS011;1736;52.068;6.968;2023-04-19T01:22:36;9.20;;;6.60;;
3443;SDS011;1736;52.068;6.968;2023-04-19T01:25:02;8.73;;;6.87;;
3443;SDS011;1736;52.068;6.968;2023-04-19T01:27:30;8.17;;;6.70;;
3443;SDS011;1736;52.068;6.968;2023-04-19T01:29:56;11.43;;;6.07;;
3443;SDS011;1736;52.068;6.968;2023-04-19T01:32:23;10.43;;;6.90;;
3443;SDS011;1736;52.068;6.968;2023-04-19T01:34:51;10.00;;;7.30;;
3443;SDS011;1736;52.068;6.968;2023-04-19T01:37:17;10.83;;;6.87;;
3443;SDS011;1736;52.068;6.968;2023-04-19T01:39:45;9.20;;;6.93;;
3443;SDS011;1736;52.068;6.968;2023-04-19T01:42:12;9.30;;;6.20;;
3443;SDS011;1736;52.068;6.968;2023-04-19T01:44:38;9.50;;;5.90;;
3443;SDS011;1736;52.068;6.968;2023-04-19T01:47:05;11.27;;;6.70;;
3443;SDS011;1736;52.068;6.968;2023-04-19T01:49:31;6.20;;;5.57;;
3443;SDS011;1736;52.068;6.968;2023-04-19T01:51:58;9.80;;;5.50;;
3443;SDS011;1736;52.068;6.968;2023-04-19T01:54:24;11.03;;;5.70;;
3443;SDS011;1736;52.068;6.968;2023-04-19T01:56:53;7.17;;;5.60;;
3443;SDS011;1736;52.068;6.968;2023-04-19T01:59:20;8.30;;;6.20;;
3443;SDS011;1736;52.068;6.968;2023-04-19T02:01:46;9.30;;;6.13;;
3443;SDS011;1736;52.068;6.968;2023-04-19T02:04:12;7.87;;;6.07;;
3443;SDS011;1736;52.068;6.968;2023-04-19T02:06:39;7.20;;;5.80;;
3443;SDS011;1736;52.068;6.968;2023-04-19T02:09:05;10.00;;;6.53;;
3443;SDS011;1736;52.068;6.968;2023-04-19T02:11:33;8.23;;;5.80;;
3443;SDS011;1736;52.068;6.968;2023-04-19T02:14:01;6.90;;;5.63;;
3443;SDS011;1736;52.068;6.968;2023-04-19T02:16:27;10.00;;;5.97;;
3443;SDS011;1736;52.068;6.968;2023-04-19T02:18:54;7.37;;;5.40;;
3443;SDS011;1736;52.068;6.968;2023-04-19T02:21:20;9.47;;;5.73;;
3443;SDS011;1736;52.068;6.968;2023-04-19T02:23:47;8.83;;;5.70;;
3443;SDS011;1736;52.068;6.968;2023-04-19T02:26:13;6.63;;;5.47;;
3443;SDS011;1736;52.068;6.968;2023-04-19T02:28:40;7.53;;;6.00;;
3443;SDS011;1736;52.068;6.968;2023-04-19T02:31:08;7.37;;;5.80;;
3443;SDS011;1736;52.068;6.968;2023-04-19T02:33:35;6.60;;;5.30;;
3443;SDS011;1736;52.068;6.968;2023-04-19T02:36:01;7.77;;;5.80;;
3443;SDS011;1736;52.068;6.968;2023-04-19T02:38:28;10.70;;;5.57;;
3443;SDS011;1736;52.068;6.968;2023-04-19T02:40:54;6.47;;;5.43;;
3443;SDS011;1736;52.068;6.968;2023-04-19T02:43:21;9.27;;;6.37;;
3443;SDS011;1736;52.068;6.968;2023-04-19T02:45:47;6.73;;;5.50;;
3443;SDS011;1736;52.068;6.968;2023-04-19T02:48:16;8.07;;;6.00;;
3443;SDS011;1736;52.068;6.968;2023-04-19T02:50:42;7.60;;;5.90;;
3443;SDS011;1736;52.068;6.968;2023-04-19T02:53:09;7.53;;;6.03;;
3443;SDS011;1736;52.068;6.968;2023-04-19T02:55:35;10.00;;;6.70;;
3443;SDS011;1736;52.068;6.968;2023-04-19T02:58:02;9.07;;;6.57;;
3443;SDS011;1736;52.068;6.968;2023-04-19T03:00:28;7.67;;;6.17;;
3443;SDS011;1736;52.068;6.968;2023-04-19T03:02:55;10.30;;;5.93;;
3443;SDS011;1736;52.068;6.968;2023-04-19T03:05:23;11.37;;;6.23;;
3443;SDS011;1736;52.068;6.968;2023-04-19T03:07:49;11.20;;;5.93;;
3443;SDS011;1736;52.068;6.968;2023-04-19T03:10:16;9.40;;;6.73;;
3443;SDS011;1736;52.068;6.968;2023-04-19T03:12:43;7.93;;;6.30;;
3443;SDS011;1736;52.068;6.968;2023-04-19T03:15:09;10.60;;;6.73;;
3443;SDS011;1736;52.068;6.968;2023-04-19T03:17:36;7.30;;;5.60;;
3443;SDS011;1736;52.068;6.968;2023-04-19T03:20:03;8.90;;;6.33;;
3443;SDS011;1736;52.068;6.968;2023-04-19T03:22:35;7.13;;;5.40;;
3443;SDS011;1736;52.068;6.968;2023-04-19T03:25:01;8.37;;;6.30;;
3443;SDS011;1736;52.068;6.968;2023-04-19T03:27:28;8.80;;;5.77;;
3443;SDS011;1736;52.068;6.968;2023-04-19T03:29:55;8.67;;;5.77;;
3443;SDS011;1736;52.068;6.968;2023-04-19T03:32:22;8.40;;;6.13;;
3443;SDS011;1736;52.068;6.968;2023-04-19T03:34:48;8.37;;;6.03;;
3443;SDS011;1736;52.068;6.968;2023-04-19T03:37:15;7.03;;;5.57;;
3443;SDS011;1736;52.068;6.968;2023-04-19T03:39:43;7.23;;;5.73;;
3443;SDS011;1736;52.068;6.968;2023-04-19T03:42:09;6.57;;;5.40;;
3443;SDS011;1736;52.068;6.968;2023-04-19T03:44:36;7.40;;;6.20;;
3443;SDS011;1736;52.068;6.968;2023-04-19T03:47:02;9.00;;;6.30;;
3443;SDS011;1736;52.068;6.968;2023-04-19T03:49:29;7.63;;;5.20;;
3443;SDS011;1736;52.068;6.968;2023-04-19T03:51:55;6.70;;;5.50;;
3443;SDS011;1736;52.068;6.968;2023-04-19T03:54:22;13.50;;;5.30;;
3443;SDS011;1736;52.068;6.968;2023-04-19T03:56:50;8.30;;;5.33;;
3443;SDS011;1736;52.068;6.968;2023-04-19T03:59:16;10.20;;;5.53;;
3443;SDS011;1736;52.068;6.968;2023-04-19T04:01:43;10.13;;;5.67;;
3443;SDS011;1736;52.068;6.968;2023-04-19T04:04:09;7.90;;;5.17;;
3443;SDS011;1736;52.068;6.968;2023-04-19T04:06:36;6.10;;;4.83;;
3443;SDS011;1736;52.068;6.968;2023-04-19T04:09:03;6.23;;;4.93;;
3443;SDS011;1736;52.068;6.968;2023-04-19T04:11:30;7.57;;;5.30;;
3443;SDS011;1736;52.068;6.968;2023-04-19T04:13:58;7.13;;;5.40;;
3443;SDS011;1736;52.068;6.968;2023-04-19T04:16:24;6.63;;;4.60;;
3443;SDS011;1736;52.068;6.968;2023-04-19T04:18:51;6.70;;;5.30;;
3443;SDS011;1736;52.068;6.968;2023-04-19T04:21:17;4.93;;;4.23;;
3443;SDS011;1736;52.068;6.968;2023-04-19T04:23:44;10.10;;;5.10;;
3443;SDS011;1736;52.068;6.968;2023-04-19T04:26:11;6.10;;;4.97;;
3443;SDS011;1736;52.068;6.968;2023-04-19T04:28:38;7.73;;;4.53;;
3443;SDS011;1736;52.068;6.968;2023-04-19T04:31:05;6.03;;;4.93;;
3443;SDS011;1736;52.068;6.968;2023-04-19T04:33:33;7.50;;;4.90;;
3443;SDS011;1736;52.068;6.968;2023-04-19T04:36:00;9.37;;;5.13;;
3443;SDS011;1736;52.068;6.968;2023-04-19T04:38:27;6.93;;;5.03;;
3443;SDS011;1736;52.068;6.968;2023-04-19T04:40:55;7.60;;;4.83;;
3443;SDS011;1736;52.068;6.968;2023-04-19T04:43:23;6.10;;;4.77;;
3443;SDS011;1736;52.068;6.968;2023-04-19T04:45:53;8.50;;;4.40;;
3443;SDS011;1736;52.068;6.968;2023-04-19T04:48:23;9.20;;;4.23;;
3443;SDS011;1736;52.068;6.968;2023-04-19T04:50:49;6.73;;;5.07;;
3443;SDS011;1736;52.068;6.968;2023-04-19T04:53:16;8.87;;;4.40;;
3443;SDS011;1736;52.068;6.968;2023-04-19T04:55:43;8.10;;;4.53;;
3443;SDS011;1736;52.068;6.968;2023-04-19T04:58:16;5.43;;;4.10;;
3443;SDS011;1736;52.068;6.968;2023-04-19T05:00:43;7.53;;;4.03;;
3443;SDS011;1736;52.068;6.968;2023-04-19T05:03:09;4.60;;;4.20;;
3443;SDS011;1736;52.068;6.968;2023-04-19T05:05:37;5.30;;;4.80;;
3443;SDS011;1736;52.068;6.968;2023-04-19T05:08:10;7.43;;;4.30;;
3443;SDS011;1736;52.068;6.968;2023-04-19T05:10:37;6.63;;;4.20;;
3443;SDS011;1736;52.068;6.968;2023-04-19T05:13:04;9.90;;;4.27;;
3443;SDS011;1736;52.068;6.968;2023-04-19T05:15:30;6.67;;;3.50;;
3443;SDS011;1736;52.068;6.968;2023-04-19T05:17:57;7.77;;;4.03;;
3443;SDS011;1736;52.068;6.968;2023-04-19T05:20:23;5.07;;;3.90;;
3443;SDS011;1736;52.068;6.968;2023-04-19T05:22:56;5.87;;;3.90;;
3443;SDS011;1736;52.068;6.968;2023-04-19T05:25:23;9.40;;;3.57;;
3443;SDS011;1736;52.068;6.968;2023-04-19T05:27:49;3.90;;;3.50;;
3443;SDS011;1736;52.068;6.968;2023-04-19T05:30:16;5.90;;;3.67;;
3443;SDS011;1736;52.068;6.968;2023-04-19T05:32:43;8.00;;;4.00;;
3443;SDS011;1736;52.068;6.968;2023-04-19T05:35:10;4.13;;;3.17;;
3443;SDS011;1736;52.068;6.968;2023-04-19T05:37:36;5.90;;;4.10;;
3443;SDS011;1736;52.068;6.968;2023-04-19T05:40:05;6.60;;;3.50;;
3443;SDS011;1736;52.068;6.968;2023-04-19T05:42:34;5.40;;;3.70;;
3443;SDS011;1736;52.068;6.968;2023-04-19T05:45:00;5.57;;;3.70;;
3443;SDS011;1736;52.068;6.968;2023-04-19T05:47:27;4.00;;;3.27;;
3443;SDS011;1736;52.068;6.968;2023-04-19T05:49:54;4.37;;;3.13;;
3443;SDS011;1736;52.068;6.968;2023-04-19T05:52:20;4.07;;;3.53;;
3443;SDS011;1736;52.068;6.968;2023-04-19T05:54:47;5.83;;;3.40;;
3443;SDS011;1736;52.068;6.968;2023-04-19T05:57:14;3.47;;;3.17;;
3443;SDS011;1736;52.068;6.968;2023-04-19T05:59:41;8.40;;;3.67;;
3443;SDS011;1736;52.068;6.968;2023-04-19T06:02:08;4.90;;;3.60;;
3443;SDS011;1736;52.068;6.968;2023-04-19T06:04:35;4.03;;;3.10;;
3443;SDS011;1736;52.068;6.968;2023-04-19T06:07:01;3.60;;;3.30;;
3443;SDS011;1736;52.068;6.968;2023-04-19T06:09:28;7.67;;;3.60;;
3443;SDS011;1736;52.068;6.968;2023-04-19T06:11:54;9.93;;;3.30;;
3443;SDS011;1736;52.068;6.968;2023-04-19T06:14:22;3.70;;;3.00;;
3443;SDS011;1736;52.068;6.968;2023-04-19T06:16:49;6.93;;;2.93;;
3443;SDS011;1736;52.068;6.968;2023-04-19T06:19:15;8.40;;;3.43;;
3443;SDS011;1736;52.068;6.968;2023-04-19T06:21:42;3.40;;;3.10;;
3443;SDS011;1736;52.068;6.968;2023-04-19T06:24:08;4.37;;;3.20;;
3443;SDS011;1736;52.068;6.968;2023-04-19T06:26:35;3.17;;;2.83;;
3443;SDS011;1736;52.068;6.968;2023-04-19T06:29:02;4.03;;;3.37;;
3443;SDS011;1736;52.068;6.968;2023-04-19T06:31:30;4.30;;;3.20;;
3443;SDS011;1736;52.068;6.968;2023-04-19T06:33:57;3.93;;;3.03;;
3443;SDS011;1736;52.068;6.968;2023-04-19T06:36:24;3.83;;;2.83;;
3443;SDS011;1736;52.068;6.968;2023-04-19T06:38:51;3.10;;;2.80;;
3443;SDS011;1736;52.068;6.968;2023-04-19T06:41:17;3.50;;;2.80;;
3443;SDS011;1736;52.068;6.968;2023-04-19T06:43:44;6.37;;;3.27;;
3443;SDS011;1736;52.068;6.968;2023-04-19T06:46:11;6.60;;;3.30;;
3443;SDS011;1736;52.068;6.968;2023-04-19T06:48:39;4.47;;;3.23;;
3443;SDS011;1736;52.068;6.968;2023-04-19T06:51:06;3.70;;;3.30;;
3443;SDS011;1736;52.068;6.968;2023-04-19T06:53:33;6.17;;;2.97;;
3443;SDS011;1736;52.068;6.968;2023-04-19T06:56:01;3.17;;;2.87;;
3443;SDS011;1736;52.068;6.968;2023-04-19T06:58:29;2.60;;;2.40;;
3443;SDS011;1736;52.068;6.968;2023-04-19T07:00:56;5.63;;;2.83;;
3443;SDS011;1736;52.068;6.968;2023-04-19T07:03:23;27.77;;;2.87;;
3443;SDS011;1736;52.068;6.968;2023-04-19T07:05:51;3.40;;;2.50;;
3443;SDS011;1736;52.068;6.968;2023-04-19T07:08:20;3.67;;;3.10;;
3443;SDS011;1736;52.068;6.968;2023-04-19T07:10:47;2.90;;;2.70;;
3443;SDS011;1736;52.068;6.968;2023-04-19T07:13:14;4.37;;;2.30;;
3443;SDS011;1736;52.068;6.968;2023-04-19T07:15:40;2.73;;;2.50;;
3443;SDS011;1736;52.068;6.968;2023-04-19T07:18:07;4.27;;;2.40;;
3443;SDS011;1736;52.068;6.968;2023-04-19T07:20:35;7.80;;;2.90;;
3443;SDS011;1736;52.068;6.968;2023-04-19T07:23:03;2.60;;;2.37;;
3443;SDS011;1736;52.068;6.968;2023-04-19T07:25:29;22.83;;;2.60;;
3443;SDS011;1736;52.068;6.968;2023-04-19T07:27:56;5.33;;;2.90;;
3443;SDS011;1736;52.068;6.968;2023-04-19T07:30:22;3.30;;;2.53;;
3443;SDS011;1736;52.068;6.968;2023-04-19T07:32:49;3.93;;;3.10;;
3443;SDS011;1736;52.068;6.968;2023-04-19T07:35:17;2.53;;;2.33;;
3443;SDS011;1736;52.068;6.968;2023-04-19T07:37:44;3.73;;;2.50;;
3443;SDS011;1736;52.068;6.968;2023-04-19T07:40:12;2.67;;;2.47;;
3443;SDS011;1736;52.068;6.968;2023-04-19T07:42:39;3.83;;;2.67;;
3443;SDS011;1736;52.068;6.968;2023-04-19T07:45:06;2.90;;;2.70;;
3443;SDS011;1736;52.068;6.968;2023-04-19T07:47:33;6.83;;;2.53;;
3443;SDS011;1736;52.068;6.968;2023-04-19T07:49:59;3.40;;;2.70;;
3443;SDS011;1736;52.068;6.968;2023-04-19T07:52:26;3.20;;;2.07;;
3443;SDS011;1736;52.068;6.968;2023-04-19T07:54:52;3.67;;;2.40;;
3443;SDS011;1736;52.068;6.968;2023-04-19T07:57:20;4.03;;;2.50;;
3443;SDS011;1736;52.068;6.968;2023-04-19T07:59:47;3.83;;;2.07;;
3443;SDS011;1736;52.068;6.968;2023-04-19T08:02:13;2.60;;;2.40;;
3443;SDS011;1736;52.068;6.968;2023-04-19T08:04:43;3.30;;;2.37;;
3443;SDS011;1736;52.068;6.968;2023-04-19T08:07:12;2.13;;;1.93;;
3443;SDS011;1736;52.068;6.968;2023-04-19T08:09:38;3.50;;;2.13;;
3443;SDS011;1736;52.068;6.968;2023-04-19T08:12:05;2.67;;;2.47;;
3443;SDS011;1736;52.068;6.968;2023-04-19T08:14:33;2.27;;;2.07;;
3443;SDS011;1736;52.068;6.968;2023-04-19T08:17:03;2.00;;;1.90;;
3443;SDS011;1736;52.068;6.968;2023-04-19T08:19:29;2.60;;;2.40;;
3443;SDS011;1736;52.068;6.968;2023-04-19T08:21:56;3.07;;;2.17;;
3443;SDS011;1736;52.068;6.968;2023-04-19T08:24:22;5.45;;;2.70;;
3443;SDS011;1736;52.068;6.968;2023-04-19T08:26:49;2.60;;;2.40;;
3443;SDS011;1736;52.068;6.968;2023-04-19T08:29:18;2.23;;;1.93;;
3443;SDS011;1736;52.068;6.968;2023-04-19T08:31:47;2.47;;;2.27;;
3443;SDS011;1736;52.068;6.968;2023-04-19T08:34:14;2.37;;;2.17;;
3443;SDS011;1736;52.068;6.968;2023-04-19T08:36:40;2.40;;;1.87;;
3443;SDS011;1736;52.068;6.968;2023-04-19T08:39:07;2.17;;;2.07;;
3443;SDS011;1736;52.068;6.968;2023-04-19T08:41:33;2.10;;;2.00;;
3443;SDS011;1736;52.068;6.968;2023-04-19T08:44:00;2.03;;;1.93;;
3443;SDS011;1736;52.068;6.968;2023-04-19T08:46:29;4.33;;;2.07;;
3443;SDS011;1736;52.068;6.968;2023-04-19T08:48:57;1.90;;;1.80;;
3443;SDS011;1736;52.068;6.968;2023-04-19T08:51:25;1.93;;;1.70;;
3443;SDS011;1736;52.068;6.968;2023-04-19T08:53:53;2.40;;;2.20;;
3443;SDS011;1736;52.068;6.968;2023-04-19T08:56:21;2.30;;;2.10;;
3443;SDS011;1736;52.068;6.968;2023-04-19T08:58:48;2.23;;;2.03;;
3443;SDS011;1736;52.068;6.968;2023-04-19T09:01:15;2.10;;;2.00;;
3443;SDS011;1736;52.068;6.968;2023-04-19T09:03:41;2.73;;;2.33;;
3443;SDS011;1736;52.068;6.968;2023-04-19T09:06:11;3.23;;;1.80;;
3443;SDS011;1736;52.068;6.968;2023-04-19T09:08:37;2.27;;;2.07;;
3443;SDS011;1736;52.068;6.968;2023-04-19T09:11:05;2.90;;;2.70;;
3443;SDS011;1736;52.068;6.968;2023-04-19T09:13:32;3.20;;;2.40;;
3443;SDS011;1736;52.068;6.968;2023-04-19T09:16:00;2.93;;;2.33;;
3443;SDS011;1736;52.068;6.968;2023-04-19T09:18:28;2.00;;;1.80;;
3443;SDS011;1736;52.068;6.968;2023-04-19T09:20:55;4.33;;;2.40;;
3443;SDS011;1736;52.068;6.968;2023-04-19T09:23:24;3.33;;;2.10;;
3443;SDS011;1736;52.068;6.968;2023-04-19T09:25:53;5.07;;;2.50;;
3443;SDS011;1736;52.068;6.968;2023-04-19T09:28:21;3.53;;;2.23;;
3443;SDS011;1736;52.068;6.968;2023-04-19T09:30:49;2.30;;;2.13;;
3443;SDS011;1736;52.068;6.968;2023-04-19T09:33:28;4.50;;;2.30;;
3443;SDS011;1736;52.068;6.968;2023-04-19T09:35:57;6.30;;;2.40;;
3443;SDS011;1736;52.068;6.968;2023-04-19T09:38:26;5.80;;;2.70;;
3443;SDS011;1736;52.068;6.968;2023-04-19T09:40:55;3.07;;;2.40;;
3443;SDS011;1736;52.068;6.968;2023-04-19T09:43:31;3.37;;;2.40;;
3443;SDS011;1736;52.068;6.968;2023-04-19T09:45:58;2.67;;;2.47;;
3443;SDS011;1736;52.068;6.968;2023-04-19T09:48:25;4.40;;;2.27;;
3443;SDS011;1736;52.068;6.968;2023-04-19T09:50:52;3.63;;;2.90;;
3443;SDS011;1736;52.068;6.968;2023-04-19T09:53:20;4.37;;;2.50;;
3443;SDS011;1736;52.068;6.968;2023-04-19T09:55:57;3.23;;;2.50;;
3443;SDS011;1736;52.068;6.968;2023-04-19T09:58:23;6.93;;;2.30;;
3443;SDS011;1736;52.068;6.968;2023-04-19T10:00:50;2.70;;;2.50;;
3443;SDS011;1736;52.068;6.968;2023-04-19T10:03:17;3.67;;;2.40;;
3443;SDS011;1736;52.068;6.968;2023-04-19T10:05:46;2.60;;;2.40;;
3443;SDS011;1736;52.068;6.968;2023-04-19T10:08:18;2.80;;;2.60;;
3443;SDS011;1736;52.068;6.968;2023-04-19T10:10:45;3.50;;;2.70;;
3443;SDS011;1736;52.068;6.968;2023-04-19T10:13:15;2.30;;;2.10;;
3443;SDS011;1736;52.068;6.968;2023-04-19T10:15:47;5.27;;;2.60;;
3443;SDS011;1736;52.068;6.968;2023-04-19T10:18:13;3.10;;;2.80;;
3443;SDS011;1736;52.068;6.968;2023-04-19T10:20:41;7.53;;;2.50;;
3443;SDS011;1736;52.068;6.968;2023-04-19T10:23:15;2.60;;;2.20;;
3443;SDS011;1736;52.068;6.968;2023-04-19T10:25:44;4.40;;;2.27;;
3443;SDS011;1736;52.068;6.968;2023-04-19T10:28:12;9.60;;;2.20;;
3443;SDS011;1736;52.068;6.968;2023-04-19T10:30:52;2.40;;;2.20;;
3443;SDS011;1736;52.068;6.968;2023-04-19T10:33:23;2.60;;;2.40;;
3443;SDS011;1736;52.068;6.968;2023-04-19T10:35:54;6.23;;;2.53;;
3443;SDS011;1736;52.068;6.968;2023-04-19T10:38:34;2.50;;;2.30;;
3443;SDS011;1736;52.068;6.968;2023-04-19T10:41:02;4.53;;;2.40;;
3443;SDS011;1736;52.068;6.968;2023-04-19T10:43:29;2.60;;;2.40;;
3443;SDS011;1736;52.068;6.968;2023-04-19T10:45:59;2.30;;;2.20;;
3443;SDS011;1736;52.068;6.968;2023-04-19T10:48:30;5.93;;;2.70;;
3443;SDS011;1736;52.068;6.968;2023-04-19T10:50:59;3.37;;;2.53;;
3443;SDS011;1736;52.068;6.968;2023-04-19T10:53:42;4.73;;;2.70;;
3443;SDS011;1736;52.068;6.968;2023-04-19T10:56:13;4.13;;;3.73;;
3443;SDS011;1736;52.068;6.968;2023-04-19T11:01:47;4.30;;;2.90;;
3443;SDS011;1736;52.068;6.968;2023-04-19T11:07:38;2.83;;;2.63;;
3443;SDS011;1736;52.068;6.968;2023-04-19T11:10:06;3.10;;;2.57;;
3443;SDS011;1736;52.068;6.968;2023-04-19T11:12:33;3.60;;;2.50;;
3443;SDS011;1736;52.068;6.968;2023-04-19T11:15:00;6.80;;;3.00;;
3443;SDS011;1736;52.068;6.968;2023-04-19T11:17:29;3.33;;;2.80;;
3443;SDS011;1736;52.068;6.968;2023-04-19T11:19:57;3.13;;;2.93;;
3443;SDS011;1736;52.068;6.968;2023-04-19T11:22:28;6.37;;;3.40;;
3443;SDS011;1736;52.068;6.968;2023-04-19T11:24:56;3.20;;;2.50;;
3443;SDS011;1736;52.068;6.968;2023-04-19T11:27:29;4.20;;;2.73;;
3443;SDS011;1736;52.068;6.968;2023-04-19T11:30:00;3.20;;;3.00;;
3443;SDS011;1736;52.068;6.968;2023-04-19T11:32:29;4.40;;;3.20;;
3443;SDS011;1736;52.068;6.968;2023-04-19T11:34:56;4.60;;;3.03;;
3443;SDS011;1736;52.068;6.968;2023-04-19T11:37:23;5.10;;;2.83;;
3443;SDS011;1736;52.068;6.968;2023-04-19T11:39:49;4.70;;;3.27;;
3443;SDS011;1736;52.068;6.968;2023-04-19T11:42:16;4.87;;;3.70;;
3443;SDS011;1736;52.068;6.968;2023-04-19T11:44:47;5.33;;;2.93;;
3443;SDS011;1736;52.068;6.968;2023-04-19T11:47:15;4.93;;;3.20;;
3443;SDS011;1736;52.068;6.968;2023-04-19T11:49:43;4.20;;;3.00;;
3443;SDS011;1736;52.068;6.968;2023-04-19T11:52:10;8.73;;;2.90;;
3443;SDS011;1736;52.068;6.968;2023-04-19T11:54:36;4.93;;;3.17;;
3443;SDS011;1736;52.068;6.968;2023-04-19T11:57:04;7.60;;;2.73;;
3443;SDS011;1736;52.068;6.968;2023-04-19T11:59:32;3.40;;;3.10;;
3443;SDS011;1736;52.068;6.968;2023-04-19T12:02:05;4.00;;;2.70;;
3443;SDS011;1736;52.068;6.968;2023-04-19T12:04:33;3.03;;;2.73;;
3443;SDS011;1736;52.068;6.968;2023-04-19T12:07:02;5.20;;;3.27;;
3443;SDS011;1736;52.068;6.968;2023-04-19T12:09:31;4.77;;;3.30;;
3443;SDS011;1736;52.068;6.968;2023-04-19T12:11:59;4.37;;;2.70;;
3443;SDS011;1736;52.068;6.968;2023-04-19T12:14:26;5.15;;;3.13;;
3443;SDS011;1736;52.068;6.968;2023-04-19T12:17:03;7.93;;;3.07;;
3443;SDS011;1736;52.068;6.968;2023-04-19T12:19:33;3.17;;;2.87;;
3443;SDS011;1736;52.068;6.968;2023-04-19T12:22:07;3.13;;;2.80;;
3443;SDS011;1736;52.068;6.968;2023-04-19T12:24:36;4.00;;;2.87;;
3443;SDS011;1736;52.068;6.968;2023-04-19T12:27:03;4.23;;;2.50;;
3443;SDS011;1736;52.068;6.968;2023-04-19T12:29:30;2.53;;;2.37;;
3443;SDS011;1736;52.068;6.968;2023-04-19T12:31:56;6.53;;;2.73;;
3443;SDS011;1736;52.068;6.968;2023-04-19T12:34:23;5.50;;;2.97;;
3443;SDS011;1736;52.068;6.968;2023-04-19T12:36:49;5.50;;;3.10;;
3443;SDS011;1736;52.068;6.968;2023-04-19T12:39:17;7.37;;;2.90;;
3443;SDS011;1736;52.068;6.968;2023-04-19T12:41:44;6.00;;;3.00;;
3443;SDS011;1736;52.068;6.968;2023-04-19T12:44:12;5.40;;;3.20;;
3443;SDS011;1736;52.068;6.968;2023-04-19T12:46:38;3.70;;;3.10;;
3443;SDS011;1736;52.068;6.968;2023-04-19T12:49:05;3.60;;;3.30;;
3443;SDS011;1736;52.068;6.968;2023-04-19T12:51:31;7.23;;;4.03;;
3443;SDS011;1736;52.068;6.968;2023-04-19T12:53:59;6.50;;;3.63;;
3443;SDS011;1736;52.068;6.968;2023-04-19T12:56:27;6.47;;;3.50;;
3443;SDS011;1736;52.068;6.968;2023-04-19T12:58:54;5.70;;;3.80;;
3443;SDS011;1736;52.068;6.968;2023-04-19T13:01:21;4.60;;;3.73;;
3443;SDS011;1736;52.068;6.968;2023-04-19T13:03:47;3.80;;;3.50;;
3443;SDS011;1736;52.068;6.968;2023-04-19T13:06:14;8.20;;;3.70;;
3443;SDS011;1736;52.068;6.968;2023-04-19T13:08:46;30.13;;;3.83;;
3443;SDS011;1736;52.068;6.968;2023-04-19T13:11:13;3.37;;;3.00;;
3443;SDS011;1736;52.068;6.968;2023-04-19T13:13:43;5.50;;;3.40;;
3443;SDS011;1736;52.068;6.968;2023-04-19T13:16:09;4.20;;;3.50;;
3443;SDS011;1736;52.068;6.968;2023-04-19T13:18:36;4.33;;;3.77;;
3443;SDS011;1736;52.068;6.968;2023-04-19T13:21:02;4.60;;;4.10;;
3443;SDS011;1736;52.068;6.968;2023-04-19T13:23:29;5.30;;;3.60;;
3443;SDS011;1736;52.068;6.968;2023-04-19T13:25:56;3.50;;;3.10;;
3443;SDS011;1736;52.068;6.968;2023-04-19T13:28:22;6.37;;;3.73;;
3443;SDS011;1736;52.068;6.968;2023-04-19T13:30:50;4.00;;;3.20;;
3443;SDS011;1736;52.068;6.968;2023-04-19T13:33:17;3.90;;;3.30;;
3443;SDS011;1736;52.068;6.968;2023-04-19T13:35:43;3.70;;;3.40;;
3443;SDS011;1736;52.068;6.968;2023-04-19T13:38:10;10.53;;;3.40;;
3443;SDS011;1736;52.068;6.968;2023-04-19T13:40:37;4.50;;;3.30;;
3443;SDS011;1736;52.068;6.968;2023-04-19T13:43:03;4.20;;;3.30;;
3443;SDS011;1736;52.068;6.968;2023-04-19T13:45:30;3.97;;;2.93;;
3443;SDS011;1736;52.068;6.968;2023-04-19T13:47:58;4.50;;;3.37;;
3443;SDS011;1736;52.068;6.968;2023-04-19T13:50:24;4.00;;;3.60;;
3443;SDS011;1736;52.068;6.968;2023-04-19T13:52:51;4.60;;;3.27;;
3443;SDS011;1736;52.068;6.968;2023-04-19T13:55:18;3.40;;;3.10;;
3443;SDS011;1736;52.068;6.968;2023-04-19T13:57:44;3.70;;;3.20;;
3443;SDS011;1736;52.068;6.968;2023-04-19T14:00:11;4.70;;;3.00;;
3443;SDS011;1736;52.068;6.968;2023-04-19T14:02:38;4.30;;;3.13;;
3443;SDS011;1736;52.068;6.968;2023-04-19T14:05:07;3.63;;;3.27;;
3443;SDS011;1736;52.068;6.968;2023-04-19T14:07:34;5.97;;;3.80;;
3443;SDS011;1736;52.068;6.968;2023-04-19T14:10:00;6.47;;;3.57;;
3443;SDS011;1736;52.068;6.968;2023-04-19T14:12:27;7.30;;;3.63;;
3443;SDS011;1736;52.068;6.968;2023-04-19T14:14:54;7.83;;;3.60;;
3443;SDS011;1736;52.068;6.968;2023-04-19T14:17:20;4.53;;;3.90;;
3443;SDS011;1736;52.068;6.968;2023-04-19T14:19:47;4.67;;;2.80;;
3443;SDS011;1736;52.068;6.968;2023-04-19T14:22:15;3.50;;;3.20;;
3443;SDS011;1736;52.068;6.968;2023-04-19T14:24:42;6.17;;;3.53;;
3443;SDS011;1736;52.068;6.968;2023-04-19T14:27:09;5.20;;;3.70;;
3443;SDS011;1736;52.068;6.968;2023-04-19T14:29:36;3.20;;;2.80;;
3443;SDS011;1736;52.068;6.968;2023-04-19T14:32:03;6.00;;;3.40;;
3443;SDS011;1736;52.068;6.968;2023-04-19T14:34:29;3.50;;;3.20;;
3443;SDS011;1736;52.068;6.968;2023-04-19T14:36:56;7.10;;;3.17;;
3443;SDS011;1736;52.068;6.968;2023-04-19T14:39:24;5.20;;;3.47;;
3443;SDS011;1736;52.068;6.968;2023-04-19T14:41:51;4.07;;;3.37;;
3443;SDS011;1736;52.068;6.968;2023-04-19T14:44:17;3.93;;;3.53;;
3443;SDS011;1736;52.068;6.968;2023-04-19T14:46:44;3.03;;;2.73;;
3443;SDS011;1736;52.068;6.968;2023-04-19T14:49:10;5.80;;;3.00;;
3443;SDS011;1736;52.068;6.968;2023-04-19T14:51:37;3.90;;;2.70;;
3443;SDS011;1736;52.068;6.968;2023-04-19T14:54:03;3.30;;;2.23;;
3443;SDS011;1736;52.068;6.968;2023-04-19T14:56:31;2.70;;;2.50;;
3443;SDS011;1736;52.068;6.968;2023-04-19T14:58:58;4.13;;;2.70;;
3443;SDS011;1736;52.068;6.968;2023-04-19T15:01:24;6.17;;;2.30;;
3443;SDS011;1736;52.068;6.968;2023-04-19T15:03:51;3.83;;;2.47;;
3443;SDS011;1736;52.068;6.968;2023-04-19T15:06:17;4.00;;;2.80;;
3443;SDS011;1736;52.068;6.968;2023-04-19T15:08:44;3.43;;;2.30;;
3443;SDS011;1736;52.068;6.968;2023-04-19T15:11:11;5.47;;;2.70;;
3443;SDS011;1736;52.068;6.968;2023-04-19T15:13:38;3.80;;;2.70;;
3443;SDS011;1736;52.068;6.968;2023-04-19T15:16:05;4.53;;;2.73;;
3443;SDS011;1736;52.068;6.968;2023-04-19T15:18:33;3.77;;;2.60;;
3443;SDS011;1736;52.068;6.968;2023-04-19T15:20:59;2.37;;;2.20;;